^^
Saratoga-Weather Station Historical Data
Daily Summary for November 14, 2020 Units:  Both    English   Metric
Daily Weekly Monthly Yearly Custom
  High: Low: Average:
Temperature: 59.5 °F /  15.3 °C 45 °F /  7.2 °C 50.4 °F /  10.2 °C
Dew Point: 53.4 °F /  11.9 °C 43.9 °F /  6.6 °C 48.2 °F /  9 °C
Humidity: 98% 79% 93%
Wind Speed: 4.9mph /  7.9km/h - 0.5mph /  0.8km/h
Wind Gust: 10mph /  16.1km/h - -
Wind- - ESE
Pressure: 30.1 in /  1019.3 hPa 30 in /  1014.9 hPa -
Precipitation: 0 in /  0.0 mm    
Historical Graphs
 
 
Tabular Data for November 14, 2020
Time Temperature Dew Point Pressure Wind Wind Speed Wind Gust Humidity Rainfall Rate (Hourly) solar
00:03 51.1 °F /  10.6 °C 49.5 °F /  9.7 °C 30.1in /  1019.0hPa Calm   3mph /  4.8km/h 94% 0in /  0.0mm 0 W/m2
00:08 50.9 °F /  10.5 °C 49.3 °F /  9.6 °C 30.1in /  1019.0hPa Calm   1mph /  1.6km/h 94% 0in /  0.0mm 0 W/m2
00:13 50.7 °F /  10.4 °C 48.7 °F /  9.3 °C 30.1in /  1019.0hPa Calm   2mph /  3.2km/h 93% 0in /  0.0mm 0 W/m2
00:18 50.4 °F /  10.2 °C 48.4 °F /  9.1 °C 30.1in /  1019.0hPa Calm     93% 0in /  0.0mm 0 W/m2
00:23 50.4 °F /  10.2 °C 48.7 °F /  9.3 °C 30.1in /  1019.0hPa Calm     94% 0in /  0.0mm 0 W/m2
00:28 50.2 °F /  10.1 °C 48.6 °F /  9.2 °C 30.1in /  1019.3hPa WSW 0.9mph /  1.4km/h 1mph /  1.6km/h 94% 0in /  0.0mm 0 W/m2
00:33 50.2 °F /  10.1 °C 48.6 °F /  9.2 °C 30.1in /  1019.3hPa Calm   1mph /  1.6km/h 94% 0in /  0.0mm 0 W/m2
00:38 50.2 °F /  10.1 °C 48.6 °F /  9.2 °C 30.1in /  1019.3hPa Calm     94% 0in /  0.0mm 0 W/m2
00:43 50.2 °F /  10.1 °C 48.6 °F /  9.2 °C 30.1in /  1019.3hPa Calm     94% 0in /  0.0mm 0 W/m2
00:48 50.2 °F /  10.1 °C 48.6 °F /  9.2 °C 30.1in /  1019.3hPa Calm     94% 0in /  0.0mm 0 W/m2
00:53 50.2 °F /  10.1 °C 48.7 °F /  9.3 °C 30.1in /  1019.3hPa Calm   1mph /  1.6km/h 95% 0in /  0.0mm 0 W/m2
00:58 50.2 °F /  10.1 °C 48.6 °F /  9.2 °C 30.1in /  1019.3hPa Calm     94% 0in /  0.0mm 0 W/m2
01:03 50.2 °F /  10.1 °C 48.7 °F /  9.3 °C 30.1in /  1019.3hPa SW 2mph /  3.2km/h 2mph /  3.2km/h 95% 0in /  0.0mm 0 W/m2
01:08 50.2 °F /  10.1 °C 48.7 °F /  9.3 °C 30.1in /  1019.3hPa Calm   1mph /  1.6km/h 95% 0in /  0.0mm 0 W/m2
01:13 50.4 °F /  10.2 °C 48.9 °F /  9.4 °C 30.1in /  1019.3hPa ESE 0.9mph /  1.4km/h 2mph /  3.2km/h 95% 0in /  0.0mm 0 W/m2
01:18 50.4 °F /  10.2 °C 48.9 °F /  9.4 °C 30.1in /  1019.3hPa SE 2.9mph /  4.7km/h 3mph /  4.8km/h 95% 0in /  0.0mm 0 W/m2
01:23 50.5 °F /  10.3 °C 49.1 °F /  9.5 °C 30.1in /  1019.0hPa Calm   3mph /  4.8km/h 95% 0in /  0.0mm 0 W/m2
01:28 50.5 °F /  10.3 °C 48.9 °F /  9.4 °C 30.1in /  1019.0hPa Calm   2mph /  3.2km/h 94% 0in /  0.0mm 0 W/m2
01:33 50.4 °F /  10.2 °C 48.7 °F /  9.3 °C 30.1in /  1019.0hPa SE 0.9mph /  1.4km/h 2mph /  3.2km/h 94% 0in /  0.0mm 0 W/m2
01:38 50.4 °F /  10.2 °C 48.7 °F /  9.3 °C 30.1in /  1019.0hPa Calm   1mph /  1.6km/h 94% 0in /  0.0mm 0 W/m2
01:43 50.2 °F /  10.1 °C 48.6 °F /  9.2 °C 30.1in /  1019.3hPa Calm     94% 0in /  0.0mm 0 W/m2
01:48 49.8 °F /  9.9 °C 48.2 °F /  9 °C 30.1in /  1019.0hPa Calm     94% 0in /  0.0mm 0 W/m2
01:53 49.6 °F /  9.8 °C 47.7 °F /  8.7 °C 30.1in /  1019.3hPa Calm     93% 0in /  0.0mm 0 W/m2
01:58 49.3 °F /  9.6 °C 47.3 °F /  8.5 °C 30.1in /  1019.0hPa Calm     93% 0in /  0.0mm 0 W/m2
02:03 48.9 °F /  9.4 °C 47.3 °F /  8.5 °C 30.1in /  1019.3hPa Calm     94% 0in /  0.0mm 0 W/m2
02:08 48.7 °F /  9.3 °C 47.1 °F /  8.4 °C 30.1in /  1019.0hPa Calm     94% 0in /  0.0mm 0 W/m2
02:13 48.7 °F /  9.3 °C 47.1 °F /  8.4 °C 30.1in /  1019.0hPa Calm     94% 0in /  0.0mm 0 W/m2
02:18 48.6 °F /  9.2 °C 46.9 °F /  8.3 °C 30.1in /  1019.0hPa Calm     94% 0in /  0.0mm 0 W/m2
02:23 48.6 °F /  9.2 °C 47.1 °F /  8.4 °C 30.1in /  1019.0hPa Calm     95% 0in /  0.0mm 0 W/m2
02:28 48.6 °F /  9.2 °C 47.1 °F /  8.4 °C 30.1in /  1019.0hPa Calm     95% 0in /  0.0mm 0 W/m2
02:33 48.4 °F /  9.1 °C 46.9 °F /  8.3 °C 30.1in /  1019.0hPa Calm     95% 0in /  0.0mm 0 W/m2
02:38 48.4 °F /  9.1 °C 46.9 °F /  8.3 °C 30.1in /  1019.0hPa Calm     95% 0in /  0.0mm 0 W/m2
02:43 48.2 °F /  9 °C 46.8 °F /  8.2 °C 30.1in /  1019.3hPa Calm     95% 0in /  0.0mm 0 W/m2
02:48 48.2 °F /  9 °C 46.8 °F /  8.2 °C 30.1in /  1019.0hPa Calm     95% 0in /  0.0mm 0 W/m2
02:53 48.2 °F /  9 °C 46.8 °F /  8.2 °C 30.1in /  1019.0hPa Calm     95% 0in /  0.0mm 0 W/m2
02:58 48.2 °F /  9 °C 46.8 °F /  8.2 °C 30.1in /  1019.0hPa Calm     95% 0in /  0.0mm 0 W/m2
03:03 48.4 °F /  9.1 °C 46.9 °F /  8.3 °C 30.1in /  1019.0hPa Calm     95% 0in /  0.0mm 0 W/m2
03:08 48.4 °F /  9.1 °C 47.3 °F /  8.5 °C 30.1in /  1019.0hPa Calm     96% 0in /  0.0mm 0 W/m2
03:13 48.4 °F /  9.1 °C 46.9 °F /  8.3 °C 30.1in /  1019.0hPa Calm     95% 0in /  0.0mm 0 W/m2
03:18 48.2 °F /  9 °C 46.8 °F /  8.2 °C 30.1in /  1019.0hPa Calm     95% 0in /  0.0mm 0 W/m2
03:23 48.2 °F /  9 °C 47.1 °F /  8.4 °C 30.1in /  1019.0hPa Calm     96% 0in /  0.0mm 0 W/m2
03:28 48 °F /  8.9 °C 46.9 °F /  8.3 °C 30.1in /  1019.0hPa Calm     96% 0in /  0.0mm 0 W/m2
03:33 48 °F /  8.9 °C 46.9 °F /  8.3 °C 30.1in /  1019.0hPa Calm     96% 0in /  0.0mm 0 W/m2
03:38 48 °F /  8.9 °C 46.9 °F /  8.3 °C 30.1in /  1019.0hPa Calm   1mph /  1.6km/h 96% 0in /  0.0mm 0 W/m2
03:43 48 °F /  8.9 °C 46.9 °F /  8.3 °C 30.1in /  1018.6hPa Calm     96% 0in /  0.0mm 0 W/m2
03:48 47.8 °F /  8.8 °C 46.8 °F /  8.2 °C 30.1in /  1018.6hPa Calm   1mph /  1.6km/h 96% 0in /  0.0mm 0 W/m2
03:53 47.7 °F /  8.7 °C 46.6 °F /  8.1 °C 30.1in /  1018.6hPa Calm     96% 0in /  0.0mm 0 W/m2
03:58 47.8 °F /  8.8 °C 46.8 °F /  8.2 °C 30.1in /  1018.6hPa Calm     96% 0in /  0.0mm 0 W/m2
04:03 47.8 °F /  8.8 °C 46.8 °F /  8.2 °C 30.1in /  1018.6hPa Calm     96% 0in /  0.0mm 0 W/m2
04:08 48 °F /  8.9 °C 46.9 °F /  8.3 °C 30.1in /  1018.6hPa Calm     96% 0in /  0.0mm 0 W/m2
04:13 48 °F /  8.9 °C 46.9 °F /  8.3 °C 30.1in /  1018.6hPa Calm     96% 0in /  0.0mm 0 W/m2
04:19 47.8 °F /  8.8 °C 46.8 °F /  8.2 °C 30.1in /  1018.6hPa Calm     96% 0in /  0.0mm 0 W/m2
04:24 47.7 °F /  8.7 °C 46.6 °F /  8.1 °C 30.1in /  1018.6hPa Calm     96% 0in /  0.0mm 0 W/m2
04:29 47.7 °F /  8.7 °C 46.6 °F /  8.1 °C 30.1in /  1018.6hPa Calm     96% 0in /  0.0mm 0 W/m2
04:34 47.7 °F /  8.7 °C 46.6 °F /  8.1 °C 30.1in /  1018.6hPa Calm     96% 0in /  0.0mm 0 W/m2
04:39 47.7 °F /  8.7 °C 46.6 °F /  8.1 °C 30.1in /  1018.6hPa Calm     96% 0in /  0.0mm 0 W/m2
04:44 47.7 °F /  8.7 °C 46.6 °F /  8.1 °C 30.1in /  1018.6hPa Calm     96% 0in /  0.0mm 0 W/m2
04:49 47.7 °F /  8.7 °C 46.6 °F /  8.1 °C 30.1in /  1018.6hPa Calm     96% 0in /  0.0mm 0 W/m2
04:54 47.7 °F /  8.7 °C 46.6 °F /  8.1 °C 30.1in /  1018.6hPa Calm     96% 0in /  0.0mm 0 W/m2
04:59 47.5 °F /  8.6 °C 46.4 °F /  8 °C 30.1in /  1018.6hPa Calm     96% 0in /  0.0mm 0 W/m2
05:04 47.3 °F /  8.5 °C 46.2 °F /  7.9 °C 30.1in /  1018.6hPa Calm     96% 0in /  0.0mm 0 W/m2
05:09 47.1 °F /  8.4 °C 46 °F /  7.8 °C 30.1in /  1018.6hPa Calm     96% 0in /  0.0mm 0 W/m2
05:14 47.1 °F /  8.4 °C 46 °F /  7.8 °C 30.1in /  1018.6hPa Calm     96% 0in /  0.0mm 0 W/m2
05:19 46.9 °F /  8.3 °C 45.9 °F /  7.7 °C 30.1in /  1018.6hPa Calm     96% 0in /  0.0mm 0 W/m2
05:24 46.9 °F /  8.3 °C 45.9 °F /  7.7 °C 30.1in /  1018.6hPa Calm     96% 0in /  0.0mm 0 W/m2
05:29 46.9 °F /  8.3 °C 45.9 °F /  7.7 °C 30.1in /  1018.6hPa Calm     96% 0in /  0.0mm 0 W/m2
05:34 46.8 °F /  8.2 °C 45.7 °F /  7.6 °C 30.1in /  1018.6hPa Calm     96% 0in /  0.0mm 0 W/m2
05:39 46.8 °F /  8.2 °C 45.7 °F /  7.6 °C 30.1in /  1018.6hPa Calm     96% 0in /  0.0mm 0 W/m2
05:44 46.6 °F /  8.1 °C 45.5 °F /  7.5 °C 30.1in /  1018.3hPa Calm     96% 0in /  0.0mm 0 W/m2
05:49 46.4 °F /  8 °C 45.3 °F /  7.4 °C 30.1in /  1018.3hPa Calm     96% 0in /  0.0mm 0 W/m2
05:54 46.2 °F /  7.9 °C 45.1 °F /  7.3 °C 30.1in /  1018.3hPa Calm     96% 0in /  0.0mm 0 W/m2
05:59 46 °F /  7.8 °C 45 °F /  7.2 °C 30.1in /  1018.3hPa Calm     96% 0in /  0.0mm 0 W/m2
06:04 45.9 °F /  7.7 °C 44.8 °F /  7.1 °C 30.1in /  1018.3hPa Calm     96% 0in /  0.0mm 0 W/m2
06:09 45.9 °F /  7.7 °C 44.8 °F /  7.1 °C 30.1in /  1018.3hPa Calm     96% 0in /  0.0mm 0 W/m2
06:14 45.9 °F /  7.7 °C 44.8 °F /  7.1 °C 30.1in /  1018.3hPa Calm     96% 0in /  0.0mm 0 W/m2
06:19 45.9 °F /  7.7 °C 44.8 °F /  7.1 °C 30.1in /  1018.3hPa Calm     96% 0in /  0.0mm 0 W/m2
06:24 45.7 °F /  7.6 °C 44.6 °F /  7 °C 30.1in /  1018.3hPa Calm     96% 0in /  0.0mm 0 W/m2
06:29 45.5 °F /  7.5 °C 44.4 °F /  6.9 °C 30.1in /  1018.3hPa Calm     96% 0in /  0.0mm 0 W/m2
06:34 45.3 °F /  7.4 °C 44.2 °F /  6.8 °C 30.1in /  1018.3hPa Calm     96% 0in /  0.0mm 0 W/m2
06:39 45.1 °F /  7.3 °C 44.1 °F /  6.7 °C 30.1in /  1018.3hPa Calm     96% 0in /  0.0mm 0 W/m2
06:44 45.1 °F /  7.3 °C 44.1 °F /  6.7 °C 30.1in /  1018.3hPa Calm     96% 0in /  0.0mm 0 W/m2
06:49 45 °F /  7.2 °C 43.9 °F /  6.6 °C 30.1in /  1018.3hPa Calm     96% 0in /  0.0mm 0 W/m2
06:54 45 °F /  7.2 °C 43.9 °F /  6.6 °C 30.1in /  1018.3hPa Calm     96% 0in /  0.0mm 0 W/m2
06:59 45.1 °F /  7.3 °C 44.1 °F /  6.7 °C 30.1in /  1018.3hPa Calm     96% 0in /  0.0mm 0 W/m2
07:04 45.1 °F /  7.3 °C 44.1 °F /  6.7 °C 30.1in /  1018.3hPa Calm     96% 0in /  0.0mm 0 W/m2
07:09 45.3 °F /  7.4 °C 44.6 °F /  7 °C 30.1in /  1018.3hPa Calm     97% 0in /  0.0mm 0 W/m2
07:14 45.3 °F /  7.4 °C 44.6 °F /  7 °C 30.1in /  1018.3hPa Calm     97% 0in /  0.0mm 0 W/m2
07:19 45.3 °F /  7.4 °C 44.6 °F /  7 °C 30.1in /  1018.3hPa Calm     97% 0in /  0.0mm 0 W/m2
07:24 45.1 °F /  7.3 °C 44.4 °F /  6.9 °C 30.1in /  1018.3hPa Calm     97% 0in /  0.0mm 0 W/m2
07:29 45.1 °F /  7.3 °C 44.4 °F /  6.9 °C 30.1in /  1018.3hPa Calm     97% 0in /  0.0mm 0 W/m2
07:34 45.1 °F /  7.3 °C 44.1 °F /  6.7 °C 30.1in /  1018.6hPa Calm     96% 0in /  0.0mm 0 W/m2
07:39 45 °F /  7.2 °C 43.9 °F /  6.6 °C 30.1in /  1018.3hPa Calm     96% 0in /  0.0mm 0 W/m2
07:44 45 °F /  7.2 °C 43.9 °F /  6.6 °C 30.1in /  1018.3hPa Calm     96% 0in /  0.0mm 0 W/m2
07:49 45 °F /  7.2 °C 44.2 °F /  6.8 °C 30.1in /  1018.6hPa Calm     97% 0in /  0.0mm 5 W/m2
07:54 45 °F /  7.2 °C 44.2 °F /  6.8 °C 30.1in /  1018.6hPa Calm     97% 0in /  0.0mm 7 W/m2
07:59 45 °F /  7.2 °C 44.2 °F /  6.8 °C 30.1in /  1018.6hPa Calm     97% 0in /  0.0mm 11 W/m2
08:04 45.1 °F /  7.3 °C 44.4 °F /  6.9 °C 30.1in /  1018.6hPa Calm     97% 0in /  0.0mm 12 W/m2
08:09 45.1 °F /  7.3 °C 44.4 °F /  6.9 °C 30.1in /  1018.6hPa Calm     97% 0in /  0.0mm 11 W/m2
08:14 45.3 °F /  7.4 °C 44.6 °F /  7 °C 30.1in /  1019.0hPa Calm     97% 0in /  0.0mm 14 W/m2
08:19 45.5 °F /  7.5 °C 44.8 °F /  7.1 °C 30.1in /  1018.6hPa Calm     97% 0in /  0.0mm 19 W/m2
08:24 45.5 °F /  7.5 °C 44.8 °F /  7.1 °C 30.1in /  1019.0hPa Calm     97% 0in /  0.0mm 26 W/m2
08:29 45.7 °F /  7.6 °C 45 °F /  7.2 °C 30.1in /  1019.0hPa Calm     97% 0in /  0.0mm 32 W/m2
08:34 45.9 °F /  7.7 °C 45.1 °F /  7.3 °C 30.1in /  1019.0hPa Calm     97% 0in /  0.0mm 35 W/m2
08:39 46 °F /  7.8 °C 45.3 °F /  7.4 °C 30.1in /  1019.0hPa Calm     97% 0in /  0.0mm 39 W/m2
08:44 46.4 °F /  8 °C 45.7 °F /  7.6 °C 30.1in /  1019.0hPa Calm     97% 0in /  0.0mm 42 W/m2
08:49 46.6 °F /  8.1 °C 45.9 °F /  7.7 °C 30.1in /  1019.0hPa Calm     97% 0in /  0.0mm 42 W/m2
08:54 46.8 °F /  8.2 °C 46 °F /  7.8 °C 30.1in /  1019.0hPa Calm     97% 0in /  0.0mm 37 W/m2
08:59 46.9 °F /  8.3 °C 46.2 °F /  7.9 °C 30.1in /  1019.0hPa Calm   2mph /  3.2km/h 97% 0in /  0.0mm 32 W/m2
09:04 47.3 °F /  8.5 °C 46.6 °F /  8.1 °C 30.1in /  1019.0hPa East 2mph /  3.2km/h 3mph /  4.8km/h 97% 0in /  0.0mm 30 W/m2
09:09 47.7 °F /  8.7 °C 46.9 °F /  8.3 °C 30.1in /  1019.0hPa ESE 2mph /  3.2km/h 3mph /  4.8km/h 97% 0in /  0.0mm 33 W/m2
09:14 48 °F /  8.9 °C 47.1 °F /  8.4 °C 30.1in /  1019.0hPa ESE 2mph /  3.2km/h 3mph /  4.8km/h 97% 0in /  0.0mm 35 W/m2
09:19 48.4 °F /  9.1 °C 47.5 °F /  8.6 °C 30.1in /  1019.0hPa ESE 2mph /  3.2km/h 3mph /  4.8km/h 97% 0in /  0.0mm 39 W/m2
09:24 48.6 °F /  9.2 °C 48 °F /  8.9 °C 30.1in /  1019.0hPa East 2.9mph /  4.7km/h 3mph /  4.8km/h 98% 0in /  0.0mm 40 W/m2
09:29 48.7 °F /  9.3 °C 47.8 °F /  8.8 °C 30.1in /  1019.0hPa ESE 2mph /  3.2km/h 2mph /  3.2km/h 97% 0in /  0.0mm 44 W/m2
09:34 48.9 °F /  9.4 °C 48 °F /  8.9 °C 30.1in /  1019.0hPa ESE 0.9mph /  1.4km/h 3mph /  4.8km/h 97% 0in /  0.0mm 49 W/m2
09:39 49.1 °F /  9.5 °C 48.6 °F /  9.2 °C 30.1in /  1019.0hPa ESE 2mph /  3.2km/h 3mph /  4.8km/h 98% 0in /  0.0mm 60 W/m2
09:44 49.3 °F /  9.6 °C 48.4 °F /  9.1 °C 30.1in /  1019.0hPa Calm   1mph /  1.6km/h 97% 0in /  0.0mm 76 W/m2
09:49 49.5 °F /  9.7 °C 48.6 °F /  9.2 °C 30.1in /  1018.6hPa ESE 2mph /  3.2km/h 2mph /  3.2km/h 97% 0in /  0.0mm 84 W/m2
09:54 49.6 °F /  9.8 °C 48.7 °F /  9.3 °C 30.1in /  1018.6hPa Calm   2mph /  3.2km/h 97% 0in /  0.0mm 90 W/m2
09:59 50 °F /  10 °C 49.5 °F /  9.7 °C 30.1in /  1018.6hPa ESE 0.9mph /  1.4km/h 3mph /  4.8km/h 98% 0in /  0.0mm 90 W/m2
10:04 50.4 °F /  10.2 °C 49.5 °F /  9.7 °C 30.1in /  1018.6hPa ESE 2mph /  3.2km/h 3mph /  4.8km/h 97% 0in /  0.0mm 88 W/m2
10:09 50.5 °F /  10.3 °C 49.6 °F /  9.8 °C 30.1in /  1018.6hPa East 0.9mph /  1.4km/h 3mph /  4.8km/h 97% 0in /  0.0mm 84 W/m2
10:14 50.9 °F /  10.5 °C 50 °F /  10 °C 30.1in /  1018.6hPa East 2mph /  3.2km/h 4mph /  6.4km/h 97% 0in /  0.0mm 83 W/m2
10:19 51.3 °F /  10.7 °C 50.7 °F /  10.4 °C 30.1in /  1018.6hPa East 0.9mph /  1.4km/h 4mph /  6.4km/h 98% 0in /  0.0mm 72 W/m2
10:24 51.4 °F /  10.8 °C 50.5 °F /  10.3 °C 30.1in /  1018.6hPa East 2mph /  3.2km/h 4mph /  6.4km/h 97% 0in /  0.0mm 65 W/m2
10:29 52 °F /  11.1 °C 51.1 °F /  10.6 °C 30.1in /  1018.6hPa East 0.9mph /  1.4km/h 2mph /  3.2km/h 97% 0in /  0.0mm 62 W/m2
10:34 52.3 °F /  11.3 °C 51.4 °F /  10.8 °C 30.1in /  1018.6hPa ENE 0.9mph /  1.4km/h 3mph /  4.8km/h 97% 0in /  0.0mm 58 W/m2
10:39 52.5 °F /  11.4 °C 51.4 °F /  10.8 °C 30.1in /  1018.6hPa ESE 2mph /  3.2km/h 3mph /  4.8km/h 96% 0in /  0.0mm 56 W/m2
10:44 52.9 °F /  11.6 °C 51.8 °F /  11 °C 30.1in /  1018.6hPa ESE 4mph /  6.4km/h 6mph /  9.7km/h 96% 0in /  0.0mm 44 W/m2
10:49 53.1 °F /  11.7 °C 51.6 °F /  10.9 °C 30.1in /  1018.6hPa ESE 2mph /  3.2km/h 2mph /  3.2km/h 95% 0in /  0.0mm 60 W/m2
10:54 53.2 °F /  11.8 °C 51.6 °F /  10.9 °C 30.1in /  1018.6hPa ESE 2mph /  3.2km/h 3mph /  4.8km/h 94% 0in /  0.0mm 62 W/m2
10:59 53.6 °F /  12 °C 51.6 °F /  10.9 °C 30.1in /  1018.6hPa East 2mph /  3.2km/h 3mph /  4.8km/h 93% 0in /  0.0mm 62 W/m2
11:04 54 °F /  12.2 °C 51.6 °F /  10.9 °C 30.1in /  1018.6hPa SE 0.9mph /  1.4km/h 4mph /  6.4km/h 92% 0in /  0.0mm 58 W/m2
11:09 54.1 °F /  12.3 °C 51.8 °F /  11 °C 30.1in /  1018.6hPa ESE 0.9mph /  1.4km/h 4mph /  6.4km/h 92% 0in /  0.0mm 63 W/m2
11:14 54.3 °F /  12.4 °C 51.8 °F /  11 °C 30.1in /  1018.6hPa ENE 0.9mph /  1.4km/h 3mph /  4.8km/h 91% 0in /  0.0mm 67 W/m2
11:19 54.7 °F /  12.6 °C 51.8 °F /  11 °C 30.1in /  1018.6hPa ESE 0.9mph /  1.4km/h 2mph /  3.2km/h 90% 0in /  0.0mm 77 W/m2
11:24 55 °F /  12.8 °C 52.2 °F /  11.2 °C 30.1in /  1018.6hPa East 2.9mph /  4.7km/h 4mph /  6.4km/h 90% 0in /  0.0mm 91 W/m2
11:29 55.6 °F /  13.1 °C 52.2 °F /  11.2 °C 30.1in /  1018.3hPa Calm   2mph /  3.2km/h 88% 0in /  0.0mm 100 W/m2
11:34 55.9 °F /  13.3 °C 52.2 °F /  11.2 °C 30.1in /  1018.3hPa Calm   1mph /  1.6km/h 87% 0in /  0.0mm 88 W/m2
11:39 56.1 °F /  13.4 °C 52 °F /  11.1 °C 30.1in /  1018.3hPa ENE 4.9mph /  7.9km/h 6mph /  9.7km/h 86% 0in /  0.0mm 84 W/m2
11:44 56.7 °F /  13.7 °C 52.5 °F /  11.4 °C 30.1in /  1018.3hPa ENE 0.9mph /  1.4km/h 1mph /  1.6km/h 86% 0in /  0.0mm 95 W/m2
11:49 57 °F /  13.9 °C 52.9 °F /  11.6 °C 30.1in /  1018.3hPa ESE 0.9mph /  1.4km/h 6mph /  9.7km/h 86% 0in /  0.0mm 125 W/m2
11:54 57.2 °F /  14 °C 52.7 °F /  11.5 °C 30.1in /  1018.0hPa ENE 2mph /  3.2km/h 4mph /  6.4km/h 85% 0in /  0.0mm 146 W/m2
11:59 57.6 °F /  14.2 °C 52.5 °F /  11.4 °C 30.1in /  1018.0hPa Calm   6mph /  9.7km/h 83% 0in /  0.0mm 125 W/m2
12:04 57.6 °F /  14.2 °C 52.5 °F /  11.4 °C 30.1in /  1018.0hPa East 2.9mph /  4.7km/h 7mph /  11.3km/h 83% 0in /  0.0mm 72 W/m2
12:09 57.7 °F /  14.3 °C 52.7 °F /  11.5 °C 30.1in /  1018.0hPa ESE 0.9mph /  1.4km/h 5mph /  8km/h 83% 0in /  0.0mm 76 W/m2
12:14 57.7 °F /  14.3 °C 52.7 °F /  11.5 °C 30.1in /  1017.6hPa NE 0.9mph /  1.4km/h 7mph /  11.3km/h 83% 0in /  0.0mm 77 W/m2
12:19 57.9 °F /  14.4 °C 52.7 °F /  11.5 °C 30.1in /  1017.6hPa ENE 0.9mph /  1.4km/h 2mph /  3.2km/h 83% 0in /  0.0mm 81 W/m2
12:24 58.1 °F /  14.5 °C 52.7 °F /  11.5 °C 30.1in /  1017.6hPa East 2mph /  3.2km/h 6mph /  9.7km/h 82% 0in /  0.0mm 65 W/m2
12:29 58.3 °F /  14.6 °C 52.9 °F /  11.6 °C 30.1in /  1017.6hPa East 0.9mph /  1.4km/h 2mph /  3.2km/h 82% 0in /  0.0mm 67 W/m2
12:34 58.5 °F /  14.7 °C 53.1 °F /  11.7 °C 30.1in /  1017.6hPa ESE 2mph /  3.2km/h 4mph /  6.4km/h 82% 0in /  0.0mm 65 W/m2
12:39 58.6 °F /  14.8 °C 53.2 °F /  11.8 °C 30.1in /  1017.6hPa Calm   1mph /  1.6km/h 82% 0in /  0.0mm 74 W/m2
12:44 58.6 °F /  14.8 °C 52.9 °F /  11.6 °C 30in /  1017.3hPa ESE 2mph /  3.2km/h 3mph /  4.8km/h 81% 0in /  0.0mm 84 W/m2
12:49 58.6 °F /  14.8 °C 52.9 °F /  11.6 °C 30in /  1017.3hPa NNE 2mph /  3.2km/h 4mph /  6.4km/h 81% 0in /  0.0mm 76 W/m2
12:54 58.8 °F /  14.9 °C 53.1 °F /  11.7 °C 30in /  1017.3hPa East 2.9mph /  4.7km/h 6mph /  9.7km/h 81% 0in /  0.0mm 65 W/m2
12:59 58.8 °F /  14.9 °C 53.1 °F /  11.7 °C 30in /  1016.9hPa SE 2mph /  3.2km/h 4mph /  6.4km/h 81% 0in /  0.0mm 67 W/m2
13:04 59 °F /  15 °C 53.2 °F /  11.8 °C 30in /  1016.9hPa East 0.9mph /  1.4km/h 6mph /  9.7km/h 81% 0in /  0.0mm 69 W/m2
13:09 59 °F /  15 °C 53.2 °F /  11.8 °C 30in /  1016.9hPa Calm   2mph /  3.2km/h 81% 0in /  0.0mm 104 W/m2
13:14 59 °F /  15 °C 53.2 °F /  11.8 °C 30in /  1016.9hPa East 2.9mph /  4.7km/h 4mph /  6.4km/h 81% 0in /  0.0mm 86 W/m2
13:19 59.2 °F /  15.1 °C 53.4 °F /  11.9 °C 30in /  1016.9hPa East 2mph /  3.2km/h 6mph /  9.7km/h 81% 0in /  0.0mm 67 W/m2
13:24 59.4 °F /  15.2 °C 53.2 °F /  11.8 °C 30in /  1016.9hPa ESE 2mph /  3.2km/h 5mph /  8km/h 80% 0in /  0.0mm 84 W/m2
13:30 59.5 °F /  15.3 °C 53.1 °F /  11.7 °C 30in /  1016.9hPa East 4mph /  6.4km/h 7mph /  11.3km/h 79% 0in /  0.0mm 65 W/m2
13:35 59.4 °F /  15.2 °C 52.9 °F /  11.6 °C 30in /  1016.9hPa ENE 4.9mph /  7.9km/h 10mph /  16.1km/h 79% 0in /  0.0mm 77 W/m2
13:40 59.4 °F /  15.2 °C 52.9 °F /  11.6 °C 30in /  1016.6hPa SSE 2.9mph /  4.7km/h 7mph /  11.3km/h 79% 0in /  0.0mm 58 W/m2
13:45 59.4 °F /  15.2 °C 52.9 °F /  11.6 °C 30in /  1016.6hPa ESE 0.9mph /  1.4km/h 10mph /  16.1km/h 79% 0in /  0.0mm 56 W/m2
13:50 59.4 °F /  15.2 °C 52.9 °F /  11.6 °C 30in /  1016.6hPa ESE 2mph /  3.2km/h 6mph /  9.7km/h 79% 0in /  0.0mm 60 W/m2
13:55 59.2 °F /  15.1 °C 52.7 °F /  11.5 °C 30in /  1016.6hPa East 0.9mph /  1.4km/h 4mph /  6.4km/h 79% 0in /  0.0mm 54 W/m2
14:00 59.2 °F /  15.1 °C 52.7 °F /  11.5 °C 30in /  1016.6hPa East 0.9mph /  1.4km/h 7mph /  11.3km/h 79% 0in /  0.0mm 53 W/m2
14:05 59.2 °F /  15.1 °C 52.7 °F /  11.5 °C 30in /  1016.6hPa East 2.9mph /  4.7km/h 5mph /  8km/h 79% 0in /  0.0mm 49 W/m2
14:10 59.2 °F /  15.1 °C 52.7 °F /  11.5 °C 30in /  1016.6hPa ESE 0.9mph /  1.4km/h 6mph /  9.7km/h 79% 0in /  0.0mm 47 W/m2
14:15 59.2 °F /  15.1 °C 52.7 °F /  11.5 °C 30in /  1016.3hPa NE 2.9mph /  4.7km/h 5mph /  8km/h 79% 0in /  0.0mm 47 W/m2
14:20 59.2 °F /  15.1 °C 52.7 °F /  11.5 °C 30in /  1016.3hPa East 2.9mph /  4.7km/h 4mph /  6.4km/h 79% 0in /  0.0mm 46 W/m2
14:25 59.2 °F /  15.1 °C 52.7 °F /  11.5 °C 30in /  1016.3hPa ENE 2mph /  3.2km/h 5mph /  8km/h 79% 0in /  0.0mm 47 W/m2
14:30 59.2 °F /  15.1 °C 52.7 °F /  11.5 °C 30in /  1016.3hPa East 0.9mph /  1.4km/h 4mph /  6.4km/h 79% 0in /  0.0mm 42 W/m2
14:35 59.2 °F /  15.1 °C 52.7 °F /  11.5 °C 30in /  1016.3hPa SE 4mph /  6.4km/h 7mph /  11.3km/h 79% 0in /  0.0mm 40 W/m2
14:40 59 °F /  15 °C 52.5 °F /  11.4 °C 30in /  1016.3hPa East 0.9mph /  1.4km/h 2mph /  3.2km/h 79% 0in /  0.0mm 40 W/m2
14:45 58.8 °F /  14.9 °C 52.3 °F /  11.3 °C 30in /  1016.3hPa ENE 2mph /  3.2km/h 4mph /  6.4km/h 79% 0in /  0.0mm 40 W/m2
14:50 58.8 °F /  14.9 °C 52.3 °F /  11.3 °C 30in /  1016.3hPa ENE 2mph /  3.2km/h 4mph /  6.4km/h 79% 0in /  0.0mm 40 W/m2
14:55 58.8 °F /  14.9 °C 52.7 °F /  11.5 °C 30in /  1016.3hPa ESE 2mph /  3.2km/h 4mph /  6.4km/h 80% 0in /  0.0mm 40 W/m2
15:00 58.6 °F /  14.8 °C 52.5 °F /  11.4 °C 30in /  1016.3hPa ESE 2mph /  3.2km/h 5mph /  8km/h 80% 0in /  0.0mm 40 W/m2
15:05 58.5 °F /  14.7 °C 52.3 °F /  11.3 °C 30in /  1015.9hPa SE 2mph /  3.2km/h 7mph /  11.3km/h 80% 0in /  0.0mm 37 W/m2
15:10 58.5 °F /  14.7 °C 52.7 °F /  11.5 °C 30in /  1015.9hPa ENE 2.9mph /  4.7km/h 5mph /  8km/h 81% 0in /  0.0mm 39 W/m2
15:15 58.5 °F /  14.7 °C 52.7 °F /  11.5 °C 30in /  1015.9hPa East 0.9mph /  1.4km/h 3mph /  4.8km/h 81% 0in /  0.0mm 35 W/m2
15:20 58.3 °F /  14.6 °C 52.5 °F /  11.4 °C 30in /  1015.9hPa South 0.9mph /  1.4km/h 7mph /  11.3km/h 81% 0in /  0.0mm 35 W/m2
15:25 57.9 °F /  14.4 °C 52.5 °F /  11.4 °C 30in /  1015.9hPa ENE 0.9mph /  1.4km/h 2mph /  3.2km/h 82% 0in /  0.0mm 32 W/m2
15:30 57.7 °F /  14.3 °C 52.3 °F /  11.3 °C 30in /  1015.9hPa Calm   2mph /  3.2km/h 82% 0in /  0.0mm 32 W/m2
15:35 57.4 °F /  14.1 °C 52.3 °F /  11.3 °C 30in /  1015.9hPa SE 2mph /  3.2km/h 3mph /  4.8km/h 83% 0in /  0.0mm 30 W/m2
15:40 57 °F /  13.9 °C 52.2 °F /  11.2 °C 30in /  1015.9hPa Calm   1mph /  1.6km/h 84% 0in /  0.0mm 28 W/m2
15:45 56.8 °F /  13.8 °C 52 °F /  11.1 °C 30in /  1015.9hPa ESE 0.9mph /  1.4km/h 3mph /  4.8km/h 84% 0in /  0.0mm 26 W/m2
15:50 56.8 °F /  13.8 °C 52 °F /  11.1 °C 30in /  1015.9hPa Calm   1mph /  1.6km/h 84% 0in /  0.0mm 26 W/m2
15:55 56.5 °F /  13.6 °C 51.6 °F /  10.9 °C 30in /  1015.9hPa Calm   4mph /  6.4km/h 84% 0in /  0.0mm 23 W/m2
16:00 56.3 °F /  13.5 °C 51.8 °F /  11 °C 30in /  1015.9hPa Calm   1mph /  1.6km/h 85% 0in /  0.0mm 21 W/m2
16:05 56.1 °F /  13.4 °C 51.6 °F /  10.9 °C 30in /  1015.9hPa Calm     85% 0in /  0.0mm 21 W/m2
16:10 55.8 °F /  13.2 °C 51.6 °F /  10.9 °C 30in /  1015.9hPa East 2mph /  3.2km/h 4mph /  6.4km/h 86% 0in /  0.0mm 19 W/m2
16:15 55.9 °F /  13.3 °C 51.8 °F /  11 °C 30in /  1015.9hPa Calm   3mph /  4.8km/h 86% 0in /  0.0mm 19 W/m2
16:20 55.6 °F /  13.1 °C 51.4 °F /  10.8 °C 30in /  1015.6hPa Calm     86% 0in /  0.0mm 18 W/m2
16:25 55.2 °F /  12.9 °C 51.1 °F /  10.6 °C 30in /  1015.6hPa ENE 0.9mph /  1.4km/h 1mph /  1.6km/h 86% 0in /  0.0mm 14 W/m2
16:30 54.9 °F /  12.7 °C 51.1 °F /  10.6 °C 30in /  1015.9hPa Calm     87% 0in /  0.0mm 14 W/m2
16:35 54.5 °F /  12.5 °C 50.7 °F /  10.4 °C 30in /  1015.6hPa Calm     87% 0in /  0.0mm 12 W/m2
16:40 54.1 °F /  12.3 °C 50.7 °F /  10.4 °C 30in /  1015.6hPa Calm     88% 0in /  0.0mm 11 W/m2
16:45 53.8 °F /  12.1 °C 50.4 °F /  10.2 °C 30in /  1015.6hPa Calm   1mph /  1.6km/h 88% 0in /  0.0mm 7 W/m2
16:50 53.4 °F /  11.9 °C 50.2 °F /  10.1 °C 30in /  1015.6hPa Calm     89% 0in /  0.0mm 5 W/m2
16:55 53.2 °F /  11.8 °C 50 °F /  10 °C 30in /  1015.6hPa Calm   1mph /  1.6km/h 89% 0in /  0.0mm 0 W/m2
17:00 52.9 °F /  11.6 °C 50 °F /  10 °C 30in /  1015.6hPa Calm     90% 0in /  0.0mm 0 W/m2
17:05 52.5 °F /  11.4 °C 49.6 °F /  9.8 °C 30in /  1015.6hPa Calm     90% 0in /  0.0mm 0 W/m2
17:10 52.2 °F /  11.2 °C 49.3 °F /  9.6 °C 30in /  1015.6hPa Calm     90% 0in /  0.0mm 0 W/m2
17:15 52 °F /  11.1 °C 49.5 °F /  9.7 °C 30in /  1015.6hPa Calm     91% 0in /  0.0mm 0 W/m2
17:20 51.6 °F /  10.9 °C 49.1 °F /  9.5 °C 30in /  1015.6hPa Calm     91% 0in /  0.0mm 0 W/m2
17:25 51.4 °F /  10.8 °C 49.3 °F /  9.6 °C 30in /  1015.6hPa Calm     92% 0in /  0.0mm 0 W/m2
17:30 51.3 °F /  10.7 °C 49.1 °F /  9.5 °C 30in /  1015.6hPa Calm     92% 0in /  0.0mm 0 W/m2
17:35 51.1 °F /  10.6 °C 48.9 °F /  9.4 °C 30in /  1015.6hPa Calm     92% 0in /  0.0mm 0 W/m2
17:40 50.7 °F /  10.4 °C 48.6 °F /  9.2 °C 30in /  1015.2hPa Calm     92% 0in /  0.0mm 0 W/m2
17:45 50.5 °F /  10.3 °C 48.4 °F /  9.1 °C 30in /  1015.2hPa Calm     92% 0in /  0.0mm 0 W/m2
17:50 50.4 °F /  10.2 °C 48.4 °F /  9.1 °C 30in /  1015.2hPa Calm     93% 0in /  0.0mm 0 W/m2
17:55 50.2 °F /  10.1 °C 48.2 °F /  9 °C 30in /  1015.2hPa Calm     93% 0in /  0.0mm 0 W/m2
18:00 50 °F /  10 °C 48 °F /  8.9 °C 30in /  1015.2hPa Calm     93% 0in /  0.0mm 0 W/m2
18:05 49.8 °F /  9.9 °C 47.8 °F /  8.8 °C 30in /  1015.2hPa Calm     93% 0in /  0.0mm 0 W/m2
18:10 49.6 °F /  9.8 °C 47.7 °F /  8.7 °C 30in /  1015.2hPa Calm     93% 0in /  0.0mm 0 W/m2
18:15 49.5 °F /  9.7 °C 47.5 °F /  8.6 °C 30in /  1015.2hPa Calm     93% 0in /  0.0mm 0 W/m2
18:20 49.3 °F /  9.6 °C 47.7 °F /  8.7 °C 30in /  1015.2hPa Calm     94% 0in /  0.0mm 0 W/m2
18:25 49.1 °F /  9.5 °C 47.5 °F /  8.6 °C 30in /  1015.2hPa Calm     94% 0in /  0.0mm 0 W/m2
18:30 48.9 °F /  9.4 °C 47.3 °F /  8.5 °C 30in /  1015.2hPa Calm     94% 0in /  0.0mm 0 W/m2
18:35 48.7 °F /  9.3 °C 47.1 °F /  8.4 °C 30in /  1015.2hPa Calm     94% 0in /  0.0mm 0 W/m2
18:40 48.7 °F /  9.3 °C 47.1 °F /  8.4 °C 30in /  1015.2hPa Calm     94% 0in /  0.0mm 0 W/m2
18:45 48.7 °F /  9.3 °C 47.1 °F /  8.4 °C 30in /  1015.2hPa Calm     94% 0in /  0.0mm 0 W/m2
18:50 48.6 °F /  9.2 °C 47.1 °F /  8.4 °C 30in /  1015.6hPa Calm     95% 0in /  0.0mm 0 W/m2
18:55 48.6 °F /  9.2 °C 47.1 °F /  8.4 °C 30in /  1015.6hPa Calm     95% 0in /  0.0mm 0 W/m2
19:00 48.6 °F /  9.2 °C 47.1 °F /  8.4 °C 30in /  1015.2hPa Calm     95% 0in /  0.0mm 0 W/m2
19:05 48.4 °F /  9.1 °C 46.9 °F /  8.3 °C 30in /  1015.2hPa Calm     95% 0in /  0.0mm 0 W/m2
19:10 48.4 °F /  9.1 °C 46.9 °F /  8.3 °C 30in /  1015.2hPa Calm     95% 0in /  0.0mm 0 W/m2
19:16 48.2 °F /  9 °C 46.8 °F /  8.2 °C 30in /  1015.2hPa Calm     95% 0in /  0.0mm 0 W/m2
19:21 48 °F /  8.9 °C 46.6 °F /  8.1 °C 30in /  1015.2hPa Calm     95% 0in /  0.0mm 0 W/m2
19:26 48 °F /  8.9 °C 46.6 °F /  8.1 °C 30in /  1015.2hPa Calm     95% 0in /  0.0mm 0 W/m2
19:31 48 °F /  8.9 °C 46.6 °F /  8.1 °C 30in /  1015.2hPa Calm     95% 0in /  0.0mm 0 W/m2
19:36 47.8 °F /  8.8 °C 46.4 °F /  8 °C 30in /  1015.2hPa Calm     95% 0in /  0.0mm 0 W/m2
19:41 47.8 °F /  8.8 °C 46.4 °F /  8 °C 30in /  1015.2hPa Calm     95% 0in /  0.0mm 0 W/m2
19:46 47.8 °F /  8.8 °C 46.8 °F /  8.2 °C 30in /  1015.2hPa Calm     96% 0in /  0.0mm 0 W/m2
19:51 47.8 °F /  8.8 °C 46.8 °F /  8.2 °C 30in /  1015.2hPa Calm     96% 0in /  0.0mm 0 W/m2
19:56 47.7 °F /  8.7 °C 46.6 °F /  8.1 °C 30in /  1015.2hPa Calm     96% 0in /  0.0mm 0 W/m2
20:01 47.7 °F /  8.7 °C 46.2 °F /  7.9 °C 30in /  1015.2hPa Calm     95% 0in /  0.0mm 0 W/m2
20:06 47.7 °F /  8.7 °C 46.2 °F /  7.9 °C 30in /  1015.2hPa Calm     95% 0in /  0.0mm 0 W/m2
20:11 47.5 °F /  8.6 °C 46.4 °F /  8 °C 30in /  1015.2hPa Calm     96% 0in /  0.0mm 0 W/m2
20:16 47.3 °F /  8.5 °C 46.2 °F /  7.9 °C 30in /  1015.2hPa Calm     96% 0in /  0.0mm 0 W/m2
20:21 47.1 °F /  8.4 °C 46 °F /  7.8 °C 30in /  1015.2hPa Calm     96% 0in /  0.0mm 0 W/m2
20:26 47.1 °F /  8.4 °C 46 °F /  7.8 °C 30in /  1015.2hPa Calm     96% 0in /  0.0mm 0 W/m2
20:31 46.9 °F /  8.3 °C 45.9 °F /  7.7 °C 30in /  1015.2hPa Calm     96% 0in /  0.0mm 0 W/m2
20:36 46.9 °F /  8.3 °C 45.9 °F /  7.7 °C 30in /  1015.2hPa Calm     96% 0in /  0.0mm 0 W/m2
20:41 46.9 °F /  8.3 °C 45.9 °F /  7.7 °C 30in /  1015.2hPa Calm     96% 0in /  0.0mm 0 W/m2
20:46 46.9 °F /  8.3 °C 45.9 °F /  7.7 °C 30in /  1015.2hPa Calm     96% 0in /  0.0mm 0 W/m2
20:51 46.8 °F /  8.2 °C 45.7 °F /  7.6 °C 30in /  1015.2hPa Calm     96% 0in /  0.0mm 0 W/m2
20:56 46.8 °F /  8.2 °C 45.7 °F /  7.6 °C 30in /  1015.2hPa Calm     96% 0in /  0.0mm 0 W/m2
21:01 46.8 °F /  8.2 °C 45.7 °F /  7.6 °C 30in /  1015.2hPa Calm     96% 0in /  0.0mm 0 W/m2
21:06 46.8 °F /  8.2 °C 45.7 °F /  7.6 °C 30in /  1015.2hPa Calm     96% 0in /  0.0mm 0 W/m2
21:11 46.6 °F /  8.1 °C 45.5 °F /  7.5 °C 30in /  1015.2hPa Calm     96% 0in /  0.0mm 0 W/m2
21:16 46.6 °F /  8.1 °C 45.5 °F /  7.5 °C 30in /  1015.2hPa Calm     96% 0in /  0.0mm 0 W/m2
21:21 46.6 °F /  8.1 °C 45.5 °F /  7.5 °C 30in /  1015.2hPa Calm     96% 0in /  0.0mm 0 W/m2
21:26 46.6 °F /  8.1 °C 45.5 °F /  7.5 °C 30in /  1015.2hPa Calm     96% 0in /  0.0mm 0 W/m2
21:31 46.8 °F /  8.2 °C 45.7 °F /  7.6 °C 30in /  1015.2hPa Calm     96% 0in /  0.0mm 0 W/m2
21:36 46.8 °F /  8.2 °C 45.7 °F /  7.6 °C 30in /  1015.2hPa Calm     96% 0in /  0.0mm 0 W/m2
21:41 46.8 °F /  8.2 °C 45.7 °F /  7.6 °C 30in /  1015.2hPa Calm     96% 0in /  0.0mm 0 W/m2
21:46 46.8 °F /  8.2 °C 45.7 °F /  7.6 °C 30in /  1015.2hPa Calm     96% 0in /  0.0mm 0 W/m2
21:51 46.8 °F /  8.2 °C 45.7 °F /  7.6 °C 30in /  1015.2hPa Calm     96% 0in /  0.0mm 0 W/m2
21:56 46.9 °F /  8.3 °C 45.9 °F /  7.7 °C 30in /  1015.2hPa Calm     96% 0in /  0.0mm 0 W/m2
22:01 46.9 °F /  8.3 °C 46.2 °F /  7.9 °C 30in /  1015.2hPa Calm     97% 0in /  0.0mm 0 W/m2
22:06 47.1 °F /  8.4 °C 46.4 °F /  8 °C 30in /  1015.2hPa Calm     97% 0in /  0.0mm 0 W/m2
22:11 47.1 °F /  8.4 °C 46.4 °F /  8 °C 30in /  1015.2hPa Calm     97% 0in /  0.0mm 0 W/m2
22:16 47.1 °F /  8.4 °C 46.4 °F /  8 °C 30in /  1015.2hPa Calm     97% 0in /  0.0mm 0 W/m2
22:21 47.3 °F /  8.5 °C 46.6 °F /  8.1 °C 30in /  1015.2hPa Calm     97% 0in /  0.0mm 0 W/m2
22:26 47.5 °F /  8.6 °C 46.8 °F /  8.2 °C 30in /  1015.2hPa Calm     97% 0in /  0.0mm 0 W/m2
22:31 47.5 °F /  8.6 °C 46.8 °F /  8.2 °C 30in /  1015.2hPa Calm     97% 0in /  0.0mm 0 W/m2
22:36 47.3 °F /  8.5 °C 46.6 °F /  8.1 °C 30in /  1015.2hPa Calm     97% 0in /  0.0mm 0 W/m2
22:41 47.3 °F /  8.5 °C 46.6 °F /  8.1 °C 30in /  1015.2hPa Calm     97% 0in /  0.0mm 0 W/m2
22:46 47.3 °F /  8.5 °C 46.6 °F /  8.1 °C 30in /  1015.2hPa Calm     97% 0in /  0.0mm 0 W/m2
22:51 47.1 °F /  8.4 °C 46.4 °F /  8 °C 30in /  1015.2hPa Calm     97% 0in /  0.0mm 0 W/m2
22:56 47.1 °F /  8.4 °C 46.4 °F /  8 °C 30in /  1015.2hPa Calm     97% 0in /  0.0mm 0 W/m2
23:01 47.1 °F /  8.4 °C 46.4 °F /  8 °C 30in /  1015.2hPa Calm     97% 0in /  0.0mm 0 W/m2
23:06 47.1 °F /  8.4 °C 46.4 °F /  8 °C 30in /  1015.2hPa Calm     97% 0in /  0.0mm 0 W/m2
23:11 47.1 °F /  8.4 °C 46.4 °F /  8 °C 30in /  1015.2hPa Calm     97% 0in /  0.0mm 0 W/m2
23:16 47.1 °F /  8.4 °C 46.4 °F /  8 °C 30in /  1015.2hPa Calm     97% 0in /  0.0mm 0 W/m2
23:21 47.1 °F /  8.4 °C 46.4 °F /  8 °C 30in /  1014.9hPa Calm     97% 0in /  0.0mm 0 W/m2
23:26 47.3 °F /  8.5 °C 46.6 °F /  8.1 °C 30in /  1014.9hPa Calm     97% 0in /  0.0mm 0 W/m2
23:31 47.3 °F /  8.5 °C 46.6 °F /  8.1 °C 30in /  1014.9hPa Calm     97% 0in /  0.0mm 0 W/m2
23:36 47.3 °F /  8.5 °C 46.6 °F /  8.1 °C 30in /  1014.9hPa Calm     97% 0in /  0.0mm 0 W/m2
23:41 47.3 °F /  8.5 °C 46.6 °F /  8.1 °C 30in /  1014.9hPa Calm     97% 0in /  0.0mm 0 W/m2
23:46 47.3 °F /  8.5 °C 46.6 °F /  8.1 °C 30in /  1014.9hPa Calm     97% 0in /  0.0mm 0 W/m2
23:51 47.1 °F /  8.4 °C 46.4 °F /  8 °C 30in /  1014.9hPa Calm     97% 0in /  0.0mm 0 W/m2
23:56 47.1 °F /  8.4 °C 46.4 °F /  8 °C 30in /  1014.9hPa Calm     97% 0in /  0.0mm 0 W/m2
Juneau County Weather
Compliments of Weather Underground - 4 mb